OCN5ZT LGMK-EDDF
Flight info
| Callsign | OCN5ZT |
|---|---|
| Flight time | 2h 46m |
| Altitude | 36000 |
| Route | VARIX L995 KEA UN132 ROPOX UM749 SKP DCT MAKED DCT LONTA UL608 DOLEV DCT RADLY DCT SIMBA DCT AKINI T161 DEBHI DEBHI1B |
| Aircraft | A320/M-SDE2E3FGIJ1LORWXYZ/HB1 |
Departure
| Time | 2026-05-05 09:03 |
|---|---|
| Airport | Mykonos Island National Airport (LGMK) |
Arrival
| Time | 2026-05-05 11:49 |
|---|---|
| Airport | Frankfurt Main Airport (EDDF) |
| Time | Latitude | Longitude | Altitude | Speed | Heading |
|---|---|---|---|---|---|
| 2026-05-05 08:14 | 37.43505 | 25.34639 | 407 ft | 0 kts | 251° |
| 2026-05-05 08:55 | 37.43510 | 25.34654 | 405 ft | 4 kts | 242° |
| 2026-05-05 08:56 | 37.43526 | 25.34679 | 407 ft | 4 kts | 210° |
| 2026-05-05 08:56 | 37.43550 | 25.34688 | 408 ft | 4 kts | 176° |
| 2026-05-05 08:56 | 37.43566 | 25.34685 | 402 ft | 0 kts | 161° |
| 2026-05-05 08:58 | 37.43543 | 25.34695 | 408 ft | 7 kts | 161° |
| 2026-05-05 08:58 | 37.43500 | 25.34713 | 408 ft | 6 kts | 161° |
| 2026-05-05 08:59 | 37.43451 | 25.34734 | 405 ft | 10 kts | 158° |
| 2026-05-05 08:59 | 37.43406 | 25.34811 | 407 ft | 12 kts | 113° |
| 2026-05-05 08:59 | 37.43346 | 25.34895 | 412 ft | 15 kts | 155° |
| 2026-05-05 08:59 | 37.43233 | 25.34947 | 412 ft | 20 kts | 160° |
| 2026-05-05 09:00 | 37.43093 | 25.35008 | 413 ft | 22 kts | 161° |
| 2026-05-05 09:00 | 37.42950 | 25.35071 | 413 ft | 22 kts | 160° |
| 2026-05-05 09:00 | 37.42811 | 25.35133 | 409 ft | 16 kts | 166° |
| 2026-05-05 09:00 | 37.42718 | 25.35160 | 409 ft | 11 kts | 92° |
| 2026-05-05 09:01 | 37.42740 | 25.35168 | 410 ft | 1 kts | 334° |
| 2026-05-05 09:01 | 37.42770 | 25.35152 | 408 ft | 0 kts | 341° |
| 2026-05-05 09:02 | 37.42777 | 25.35149 | 408 ft | 6 kts | 341° |
| 2026-05-05 09:02 | 37.43014 | 25.35042 | 412 ft | 74 kts | 340° |
| 2026-05-05 09:02 | 37.43720 | 25.34729 | 409 ft | 137 kts | 340° |
| 2026-05-05 09:02 | 37.44690 | 25.34301 | 905 ft | 149 kts | 339° |
| 2026-05-05 09:03 | 37.45664 | 25.33876 | 1671 ft | 150 kts | 341° |
| 2026-05-05 09:03 | 37.46665 | 25.33299 | 2074 ft | 168 kts | 323° |
| 2026-05-05 09:03 | 37.47360 | 25.32011 | 2398 ft | 192 kts | 285° |
| 2026-05-05 09:03 | 37.47521 | 25.30310 | 3018 ft | 200 kts | 277° |
| 2026-05-05 09:04 | 37.47670 | 25.28481 | 3298 ft | 221 kts | 279° |
| 2026-05-05 09:04 | 37.47800 | 25.27158 | 3462 ft | 239 kts | 279° |
| 2026-05-05 09:04 | 37.48102 | 25.24228 | 4135 ft | 262 kts | 279° |
| 2026-05-05 09:04 | 37.48284 | 25.21916 | 4959 ft | 269 kts | 272° |
| 2026-05-05 09:05 | 37.47807 | 25.19616 | 5782 ft | 280 kts | 244° |
| 2026-05-05 09:05 | 37.46576 | 25.17681 | 6613 ft | 287 kts | 231° |
| 2026-05-05 09:05 | 37.45230 | 25.15790 | 7377 ft | 292 kts | 232° |
| 2026-05-05 09:05 | 37.43879 | 25.13869 | 8187 ft | 295 kts | 231° |
| 2026-05-05 09:06 | 37.42505 | 25.11938 | 8990 ft | 298 kts | 231° |
| 2026-05-05 09:06 | 37.41578 | 25.10648 | 9503 ft | 302 kts | 230° |
| 2026-05-05 09:06 | 37.40154 | 25.08684 | 10275 ft | 305 kts | 230° |
| 2026-05-05 09:06 | 37.38739 | 25.06687 | 11010 ft | 306 kts | 236° |
| 2026-05-05 09:07 | 37.37759 | 25.04322 | 11660 ft | 306 kts | 256° |
| 2026-05-05 09:07 | 37.37381 | 25.01703 | 12269 ft | 309 kts | 271° |
| 2026-05-05 09:07 | 37.37787 | 24.98048 | 12510 ft | 330 kts | 291° |
| 2026-05-05 09:07 | 37.38561 | 24.95271 | 12902 ft | 343 kts | 292° |
| 2026-05-05 09:08 | 37.39090 | 24.93344 | 13279 ft | 348 kts | 292° |
| 2026-05-05 09:08 | 37.39871 | 24.90443 | 13935 ft | 352 kts | 291° |
| 2026-05-05 09:08 | 37.40636 | 24.87554 | 14564 ft | 354 kts | 291° |
| 2026-05-05 09:08 | 37.41421 | 24.84564 | 15221 ft | 356 kts | 291° |
| 2026-05-05 09:09 | 37.42188 | 24.81639 | 15849 ft | 358 kts | 291° |
| 2026-05-05 09:09 | 37.42971 | 24.78652 | 16483 ft | 360 kts | 290° |
| 2026-05-05 09:09 | 37.43760 | 24.75647 | 17108 ft | 362 kts | 290° |
| 2026-05-05 09:09 | 37.44551 | 24.72633 | 17719 ft | 364 kts | 290° |
| 2026-05-05 09:10 | 37.45348 | 24.69601 | 18319 ft | 366 kts | 290° |
| 2026-05-05 09:10 | 37.46153 | 24.66550 | 18841 ft | 368 kts | 290° |
| 2026-05-05 09:10 | 37.46961 | 24.63485 | 19336 ft | 370 kts | 290° |
| 2026-05-05 09:10 | 37.47771 | 24.60399 | 19811 ft | 373 kts | 290° |
| 2026-05-05 09:11 | 37.48585 | 24.57288 | 20300 ft | 375 kts | 290° |
| 2026-05-05 09:11 | 37.49403 | 24.54155 | 20772 ft | 378 kts | 290° |
| 2026-05-05 09:11 | 37.50229 | 24.51000 | 21244 ft | 381 kts | 289° |
| 2026-05-05 09:11 | 37.51057 | 24.47824 | 21708 ft | 383 kts | 289° |
| 2026-05-05 09:12 | 37.51891 | 24.44624 | 22150 ft | 386 kts | 289° |
| 2026-05-05 09:12 | 37.52728 | 24.41403 | 22596 ft | 388 kts | 289° |
| 2026-05-05 09:12 | 37.53570 | 24.38160 | 23021 ft | 391 kts | 289° |
| 2026-05-05 09:12 | 37.54428 | 24.34906 | 23499 ft | 392 kts | 292° |
| 2026-05-05 09:13 | 37.55618 | 24.31822 | 23897 ft | 392 kts | 303° |
| 2026-05-05 09:13 | 37.57259 | 24.29083 | 24284 ft | 393 kts | 313° |
| 2026-05-05 09:13 | 37.59296 | 24.26783 | 24674 ft | 394 kts | 323° |
| 2026-05-05 09:13 | 37.61558 | 24.24830 | 25047 ft | 395 kts | 325° |
| 2026-05-05 09:14 | 37.63832 | 24.22877 | 25432 ft | 396 kts | 325° |
| 2026-05-05 09:14 | 37.66110 | 24.20909 | 25808 ft | 397 kts | 325° |
| 2026-05-05 09:14 | 37.68388 | 24.18932 | 26191 ft | 398 kts | 325° |
| 2026-05-05 09:14 | 37.70668 | 24.16950 | 26555 ft | 399 kts | 325° |
| 2026-05-05 09:15 | 37.72960 | 24.14956 | 26914 ft | 400 kts | 325° |
| 2026-05-05 09:15 | 37.75254 | 24.12962 | 27285 ft | 401 kts | 325° |
| 2026-05-05 09:15 | 37.77560 | 24.10961 | 27651 ft | 402 kts | 325° |
| 2026-05-05 09:15 | 37.79870 | 24.08953 | 28000 ft | 404 kts | 325° |
| 2026-05-05 09:16 | 37.82182 | 24.06938 | 28344 ft | 405 kts | 325° |
| 2026-05-05 09:16 | 37.84471 | 24.04938 | 28675 ft | 405 kts | 326° |
| 2026-05-05 09:16 | 37.86791 | 24.02909 | 29001 ft | 405 kts | 326° |
| 2026-05-05 09:16 | 37.89114 | 24.00877 | 29318 ft | 406 kts | 326° |
| 2026-05-05 09:17 | 37.91446 | 23.98841 | 29615 ft | 408 kts | 326° |
| 2026-05-05 09:17 | 37.93786 | 23.96797 | 29899 ft | 409 kts | 326° |
| 2026-05-05 09:17 | 37.96131 | 23.94747 | 30190 ft | 411 kts | 326° |
| 2026-05-05 09:17 | 37.98489 | 23.92683 | 30418 ft | 412 kts | 326° |
| 2026-05-05 09:18 | 38.00845 | 23.90620 | 30737 ft | 411 kts | 326° |
| 2026-05-05 09:18 | 38.03197 | 23.88560 | 31058 ft | 410 kts | 326° |
| 2026-05-05 09:18 | 38.05543 | 23.86504 | 31386 ft | 410 kts | 326° |
| 2026-05-05 09:18 | 38.07881 | 23.84445 | 31717 ft | 409 kts | 325° |
| 2026-05-05 09:19 | 38.10212 | 23.82386 | 32044 ft | 408 kts | 325° |
| 2026-05-05 09:19 | 38.12538 | 23.80333 | 32379 ft | 407 kts | 325° |
| 2026-05-05 09:19 | 38.14896 | 23.78360 | 32684 ft | 406 kts | 330° |
| 2026-05-05 09:19 | 38.17464 | 23.76868 | 32963 ft | 407 kts | 340° |
| 2026-05-05 09:20 | 38.20208 | 23.75963 | 33290 ft | 409 kts | 348° |
| 2026-05-05 09:20 | 38.23033 | 23.75533 | 33633 ft | 408 kts | 351° |
| 2026-05-05 09:20 | 38.25853 | 23.75136 | 33966 ft | 407 kts | 351° |
| 2026-05-05 09:20 | 38.28634 | 23.74740 | 34240 ft | 407 kts | 351° |
| 2026-05-05 09:21 | 38.31438 | 23.74336 | 34534 ft | 405 kts | 351° |
| 2026-05-05 09:21 | 38.34241 | 23.73924 | 34793 ft | 405 kts | 350° |
| 2026-05-05 09:21 | 38.37038 | 23.73511 | 35041 ft | 404 kts | 350° |
| 2026-05-05 09:21 | 38.39833 | 23.73099 | 35269 ft | 404 kts | 350° |
| 2026-05-05 09:22 | 38.42630 | 23.72688 | 35502 ft | 404 kts | 350° |
| 2026-05-05 09:22 | 38.45425 | 23.72283 | 35718 ft | 404 kts | 351° |
| 2026-05-05 09:22 | 38.48222 | 23.71881 | 35936 ft | 404 kts | 350° |
| 2026-05-05 09:22 | 38.51022 | 23.71475 | 36073 ft | 405 kts | 350° |
| 2026-05-05 09:23 | 38.53819 | 23.71066 | 36100 ft | 404 kts | 350° |
| 2026-05-05 09:23 | 38.59403 | 23.70249 | 36103 ft | 404 kts | 350° |
| 2026-05-05 09:24 | 38.64985 | 23.69441 | 36107 ft | 404 kts | 351° |
| 2026-05-05 09:24 | 38.70567 | 23.68626 | 36099 ft | 403 kts | 351° |
| 2026-05-05 09:25 | 38.76139 | 23.67804 | 36093 ft | 403 kts | 350° |
| 2026-05-05 09:25 | 38.81678 | 23.66995 | 36095 ft | 403 kts | 350° |
| 2026-05-05 09:26 | 38.87248 | 23.66178 | 36094 ft | 403 kts | 350° |
| 2026-05-05 09:26 | 38.92823 | 23.65357 | 36080 ft | 403 kts | 350° |
| 2026-05-05 09:27 | 38.98400 | 23.64530 | 36067 ft | 403 kts | 351° |
| 2026-05-05 09:27 | 39.03980 | 23.63702 | 36062 ft | 404 kts | 350° |
| 2026-05-05 09:28 | 39.09560 | 23.62874 | 36063 ft | 404 kts | 351° |
| 2026-05-05 09:28 | 39.15146 | 23.62045 | 36051 ft | 404 kts | 351° |
| 2026-05-05 09:29 | 39.20535 | 23.60259 | 36049 ft | 400 kts | 335° |
| 2026-05-05 09:29 | 39.25656 | 23.57431 | 36046 ft | 400 kts | 336° |
| 2026-05-05 09:30 | 39.30783 | 23.54636 | 36046 ft | 400 kts | 336° |
| 2026-05-05 09:30 | 39.35919 | 23.51833 | 36058 ft | 400 kts | 336° |
| 2026-05-05 09:31 | 39.41044 | 23.49008 | 36082 ft | 401 kts | 335° |
| 2026-05-05 09:31 | 39.46174 | 23.46176 | 36079 ft | 401 kts | 335° |
| 2026-05-05 09:32 | 39.51306 | 23.43346 | 36079 ft | 401 kts | 336° |
| 2026-05-05 09:32 | 39.56434 | 23.40514 | 36081 ft | 401 kts | 335° |
| 2026-05-05 09:33 | 39.61559 | 23.37674 | 36081 ft | 400 kts | 335° |
| 2026-05-05 09:33 | 39.66681 | 23.34821 | 36082 ft | 400 kts | 335° |
| 2026-05-05 09:34 | 39.71800 | 23.31970 | 36080 ft | 400 kts | 335° |
| 2026-05-05 09:34 | 39.76926 | 23.29129 | 36079 ft | 400 kts | 335° |
| 2026-05-05 09:35 | 39.82044 | 23.26280 | 36084 ft | 400 kts | 335° |
| 2026-05-05 09:35 | 39.89692 | 23.22000 | 36080 ft | 401 kts | 335° |
| 2026-05-05 09:36 | 39.94822 | 23.19132 | 36075 ft | 401 kts | 335° |
| 2026-05-05 09:36 | 39.99955 | 23.16261 | 36075 ft | 401 kts | 335° |
| 2026-05-05 09:37 | 40.05078 | 23.13379 | 36084 ft | 401 kts | 335° |
| 2026-05-05 09:37 | 40.10205 | 23.10493 | 36055 ft | 401 kts | 335° |
| 2026-05-05 09:38 | 40.15331 | 23.07606 | 36064 ft | 401 kts | 335° |
| 2026-05-05 09:38 | 40.20452 | 23.04717 | 36075 ft | 401 kts | 335° |
| 2026-05-05 09:39 | 40.25570 | 23.01820 | 36075 ft | 400 kts | 335° |
| 2026-05-05 09:39 | 40.30693 | 22.98914 | 36076 ft | 401 kts | 335° |
| 2026-05-05 09:40 | 40.35783 | 22.96028 | 36076 ft | 401 kts | 335° |
| 2026-05-05 09:40 | 40.40912 | 22.93123 | 36072 ft | 401 kts | 335° |
| 2026-05-05 09:41 | 40.46033 | 22.90211 | 36076 ft | 401 kts | 335° |
| 2026-05-05 09:41 | 40.51159 | 22.87289 | 36078 ft | 401 kts | 335° |
| 2026-05-05 09:42 | 40.56279 | 22.84359 | 36077 ft | 401 kts | 335° |
| 2026-05-05 09:42 | 40.61403 | 22.81429 | 36075 ft | 401 kts | 335° |
| 2026-05-05 09:43 | 40.66523 | 22.78492 | 36079 ft | 401 kts | 335° |
| 2026-05-05 09:43 | 40.71640 | 22.75559 | 36073 ft | 401 kts | 335° |
| 2026-05-05 09:44 | 40.76761 | 22.72623 | 36067 ft | 401 kts | 335° |
| 2026-05-05 09:44 | 40.81843 | 22.69692 | 36076 ft | 401 kts | 335° |
| 2026-05-05 09:45 | 40.86958 | 22.66732 | 36080 ft | 401 kts | 335° |
| 2026-05-05 09:45 | 40.92073 | 22.63776 | 36075 ft | 401 kts | 335° |
| 2026-05-05 09:46 | 40.97189 | 22.60825 | 36082 ft | 401 kts | 335° |
| 2026-05-05 09:46 | 41.02316 | 22.57860 | 36082 ft | 402 kts | 335° |
| 2026-05-05 09:47 | 41.07441 | 22.54887 | 36080 ft | 402 kts | 335° |
| 2026-05-05 09:47 | 41.12504 | 22.51803 | 36081 ft | 402 kts | 329° |
| 2026-05-05 09:48 | 41.16972 | 22.47372 | 36076 ft | 401 kts | 321° |
| 2026-05-05 09:48 | 41.21319 | 22.42724 | 36081 ft | 401 kts | 321° |
| 2026-05-05 09:49 | 41.25670 | 22.38081 | 36094 ft | 401 kts | 321° |
| 2026-05-05 09:49 | 41.30018 | 22.33433 | 36106 ft | 401 kts | 321° |
| 2026-05-05 09:50 | 41.34327 | 22.28821 | 36110 ft | 400 kts | 321° |
| 2026-05-05 09:50 | 41.38658 | 22.24167 | 36107 ft | 400 kts | 321° |
| 2026-05-05 09:51 | 41.42987 | 22.19506 | 36109 ft | 400 kts | 321° |
| 2026-05-05 09:51 | 41.47317 | 22.14848 | 36110 ft | 400 kts | 321° |
| 2026-05-05 09:52 | 41.51640 | 22.10170 | 36092 ft | 400 kts | 321° |
| 2026-05-05 09:52 | 41.55970 | 22.05482 | 36099 ft | 400 kts | 321° |
| 2026-05-05 09:53 | 41.60301 | 22.00791 | 36109 ft | 401 kts | 321° |
| 2026-05-05 09:53 | 41.64601 | 21.96124 | 36105 ft | 401 kts | 321° |
| 2026-05-05 09:54 | 41.68197 | 21.92223 | 36113 ft | 400 kts | 321° |
| 2026-05-05 09:54 | 41.73252 | 21.86721 | 36112 ft | 401 kts | 321° |
| 2026-05-05 09:55 | 41.77577 | 21.81996 | 36105 ft | 401 kts | 321° |
| 2026-05-05 09:55 | 41.81169 | 21.78071 | 36090 ft | 401 kts | 321° |
| 2026-05-05 09:56 | 41.85495 | 21.73342 | 36098 ft | 401 kts | 320° |
| 2026-05-05 09:56 | 41.89821 | 21.68597 | 36099 ft | 401 kts | 320° |
| 2026-05-05 09:57 | 41.94136 | 21.63847 | 36104 ft | 401 kts | 320° |
| 2026-05-05 09:57 | 41.98449 | 21.59074 | 36102 ft | 401 kts | 320° |
| 2026-05-05 09:58 | 42.02772 | 21.54320 | 36101 ft | 402 kts | 321° |
| 2026-05-05 09:58 | 42.07101 | 21.49551 | 36108 ft | 402 kts | 320° |
| 2026-05-05 09:59 | 42.11391 | 21.44794 | 36111 ft | 402 kts | 320° |
| 2026-05-05 09:59 | 42.15689 | 21.39955 | 36107 ft | 402 kts | 316° |
| 2026-05-05 10:00 | 42.19394 | 21.34296 | 36103 ft | 403 kts | 311° |
| 2026-05-05 10:00 | 42.23023 | 21.28536 | 36108 ft | 403 kts | 311° |
| 2026-05-05 10:01 | 42.26655 | 21.22772 | 36110 ft | 403 kts | 311° |
| 2026-05-05 10:01 | 42.30282 | 21.16994 | 36115 ft | 403 kts | 311° |
| 2026-05-05 10:02 | 42.33904 | 21.11214 | 36107 ft | 403 kts | 310° |
| 2026-05-05 10:02 | 42.37511 | 21.05466 | 36123 ft | 404 kts | 311° |
| 2026-05-05 10:03 | 42.41139 | 20.99665 | 36122 ft | 404 kts | 310° |
| 2026-05-05 10:03 | 42.44756 | 20.93843 | 36126 ft | 404 kts | 310° |
| 2026-05-05 10:04 | 42.48371 | 20.88028 | 36122 ft | 404 kts | 310° |
| 2026-05-05 10:04 | 42.51993 | 20.82201 | 36121 ft | 404 kts | 310° |
| 2026-05-05 10:05 | 42.55614 | 20.76359 | 36111 ft | 404 kts | 310° |
| 2026-05-05 10:05 | 42.59232 | 20.70505 | 36107 ft | 405 kts | 310° |
| 2026-05-05 10:06 | 42.62852 | 20.64641 | 36107 ft | 405 kts | 310° |
| 2026-05-05 10:06 | 42.66450 | 20.58808 | 36097 ft | 405 kts | 310° |
| 2026-05-05 10:07 | 42.70072 | 20.52924 | 36101 ft | 406 kts | 310° |
| 2026-05-05 10:07 | 42.73694 | 20.47018 | 36083 ft | 406 kts | 310° |
| 2026-05-05 10:08 | 42.77309 | 20.41114 | 36099 ft | 406 kts | 309° |
| 2026-05-05 10:08 | 42.80919 | 20.35194 | 36097 ft | 407 kts | 309° |
| 2026-05-05 10:09 | 42.84728 | 20.29507 | 36090 ft | 408 kts | 317° |
| 2026-05-05 10:09 | 42.88971 | 20.24367 | 36084 ft | 408 kts | 317° |
| 2026-05-05 10:10 | 42.93202 | 20.19202 | 36084 ft | 408 kts | 317° |
| 2026-05-05 10:10 | 42.97397 | 20.14045 | 36080 ft | 408 kts | 317° |
| 2026-05-05 10:11 | 43.01625 | 20.08853 | 36073 ft | 408 kts | 316° |
| 2026-05-05 10:11 | 43.05857 | 20.03661 | 36074 ft | 409 kts | 316° |
| 2026-05-05 10:12 | 43.10085 | 19.98456 | 36072 ft | 409 kts | 316° |
| 2026-05-05 10:12 | 43.14312 | 19.93238 | 36074 ft | 409 kts | 316° |
| 2026-05-05 10:13 | 43.18542 | 19.88005 | 36073 ft | 409 kts | 316° |
| 2026-05-05 10:13 | 43.22766 | 19.82777 | 36074 ft | 409 kts | 316° |
| 2026-05-05 10:14 | 43.26987 | 19.77527 | 36067 ft | 410 kts | 316° |
| 2026-05-05 10:14 | 43.31178 | 19.72300 | 36063 ft | 410 kts | 316° |
| 2026-05-05 10:15 | 43.35405 | 19.67018 | 36057 ft | 411 kts | 316° |
| 2026-05-05 10:15 | 43.39638 | 19.61732 | 36061 ft | 411 kts | 316° |
| 2026-05-05 10:16 | 43.43873 | 19.56433 | 36058 ft | 411 kts | 316° |
| 2026-05-05 10:16 | 43.48103 | 19.51130 | 36054 ft | 412 kts | 316° |
| 2026-05-05 10:17 | 43.52344 | 19.45809 | 36059 ft | 413 kts | 316° |
| 2026-05-05 10:17 | 43.56597 | 19.40482 | 36052 ft | 413 kts | 316° |
| 2026-05-05 10:18 | 43.60845 | 19.35127 | 36050 ft | 414 kts | 316° |
| 2026-05-05 10:18 | 43.65089 | 19.29757 | 36044 ft | 414 kts | 315° |
| 2026-05-05 10:19 | 43.69340 | 19.24368 | 36041 ft | 415 kts | 315° |
| 2026-05-05 10:19 | 43.73595 | 19.18972 | 36049 ft | 415 kts | 315° |
| 2026-05-05 10:20 | 43.77849 | 19.13570 | 36053 ft | 416 kts | 316° |
| 2026-05-05 10:20 | 43.82109 | 19.08152 | 36054 ft | 416 kts | 315° |
| 2026-05-05 10:21 | 43.86334 | 19.02751 | 36044 ft | 416 kts | 315° |
| 2026-05-05 10:21 | 43.90593 | 18.97294 | 36047 ft | 417 kts | 315° |
| 2026-05-05 10:22 | 43.94860 | 18.91831 | 36045 ft | 417 kts | 315° |
| 2026-05-05 10:22 | 43.99126 | 18.86359 | 36049 ft | 418 kts | 315° |
| 2026-05-05 10:23 | 44.03390 | 18.80862 | 36054 ft | 418 kts | 315° |
| 2026-05-05 10:23 | 44.07660 | 18.75362 | 36030 ft | 418 kts | 315° |
| 2026-05-05 10:24 | 44.11900 | 18.69888 | 36045 ft | 419 kts | 315° |
| 2026-05-05 10:24 | 44.16195 | 18.64319 | 36031 ft | 419 kts | 315° |
| 2026-05-05 10:25 | 44.20462 | 18.58785 | 36036 ft | 419 kts | 315° |
| 2026-05-05 10:25 | 44.24701 | 18.53274 | 36037 ft | 419 kts | 315° |
| 2026-05-05 10:26 | 44.28961 | 18.47712 | 36034 ft | 419 kts | 315° |
| 2026-05-05 10:26 | 44.33218 | 18.42148 | 36022 ft | 419 kts | 315° |
| 2026-05-05 10:27 | 44.37480 | 18.36577 | 36024 ft | 419 kts | 315° |
| 2026-05-05 10:27 | 44.41737 | 18.31005 | 36030 ft | 419 kts | 315° |
| 2026-05-05 10:28 | 44.45997 | 18.25412 | 36011 ft | 420 kts | 315° |
| 2026-05-05 10:28 | 44.50247 | 18.19807 | 36019 ft | 420 kts | 315° |
| 2026-05-05 10:29 | 44.54503 | 18.14185 | 36018 ft | 420 kts | 315° |
| 2026-05-05 10:29 | 44.58765 | 18.08554 | 36012 ft | 421 kts | 315° |
| 2026-05-05 10:30 | 44.63020 | 18.02922 | 36010 ft | 421 kts | 315° |
| 2026-05-05 10:30 | 44.67275 | 17.97265 | 36010 ft | 421 kts | 314° |
| 2026-05-05 10:31 | 44.71532 | 17.91600 | 36007 ft | 421 kts | 314° |
| 2026-05-05 10:31 | 44.75765 | 17.85961 | 36007 ft | 422 kts | 314° |
| 2026-05-05 10:32 | 44.80026 | 17.80266 | 36003 ft | 422 kts | 314° |
| 2026-05-05 10:32 | 44.84283 | 17.74571 | 35999 ft | 422 kts | 314° |
| 2026-05-05 10:33 | 44.88538 | 17.68861 | 35995 ft | 422 kts | 314° |
| 2026-05-05 10:33 | 44.92796 | 17.63131 | 35990 ft | 423 kts | 314° |
| 2026-05-05 10:34 | 44.97045 | 17.57395 | 35995 ft | 423 kts | 314° |
| 2026-05-05 10:34 | 45.01299 | 17.51654 | 36006 ft | 423 kts | 314° |
| 2026-05-05 10:35 | 45.05527 | 17.45940 | 36002 ft | 423 kts | 314° |
| 2026-05-05 10:35 | 45.09775 | 17.40171 | 35996 ft | 423 kts | 314° |
| 2026-05-05 10:36 | 45.14019 | 17.34383 | 35992 ft | 424 kts | 314° |
| 2026-05-05 10:36 | 45.18268 | 17.28586 | 35991 ft | 424 kts | 314° |
| 2026-05-05 10:37 | 45.22522 | 17.22782 | 35994 ft | 424 kts | 314° |
| 2026-05-05 10:37 | 45.26779 | 17.16974 | 35999 ft | 425 kts | 314° |
| 2026-05-05 10:38 | 45.31031 | 17.11144 | 35992 ft | 425 kts | 314° |
| 2026-05-05 10:38 | 45.35284 | 17.05296 | 35990 ft | 425 kts | 314° |
| 2026-05-05 10:39 | 45.39540 | 16.99435 | 35991 ft | 426 kts | 314° |
| 2026-05-05 10:39 | 45.43766 | 16.93602 | 35989 ft | 426 kts | 314° |
| 2026-05-05 10:40 | 45.48023 | 16.87713 | 35987 ft | 426 kts | 313° |
| 2026-05-05 10:40 | 45.52277 | 16.81814 | 35985 ft | 427 kts | 313° |
| 2026-05-05 10:41 | 45.56525 | 16.75900 | 35990 ft | 427 kts | 313° |
| 2026-05-05 10:41 | 45.60780 | 16.69974 | 35991 ft | 427 kts | 313° |
| 2026-05-05 10:42 | 45.67163 | 16.61067 | 35994 ft | 427 kts | 313° |
| 2026-05-05 10:43 | 45.71409 | 16.55111 | 35990 ft | 428 kts | 313° |
| 2026-05-05 10:43 | 45.75655 | 16.49139 | 35998 ft | 428 kts | 313° |
| 2026-05-05 10:44 | 45.79905 | 16.43166 | 36008 ft | 428 kts | 313° |
| 2026-05-05 10:44 | 45.83436 | 16.38185 | 36002 ft | 429 kts | 313° |
| 2026-05-05 10:45 | 45.87686 | 16.32172 | 36003 ft | 430 kts | 312° |
| 2026-05-05 10:45 | 45.91941 | 16.26128 | 35997 ft | 431 kts | 312° |
| 2026-05-05 10:46 | 45.96212 | 16.20090 | 35995 ft | 431 kts | 313° |
| 2026-05-05 10:46 | 46.00491 | 16.14021 | 35990 ft | 432 kts | 312° |
| 2026-05-05 10:47 | 46.04755 | 16.07937 | 35998 ft | 432 kts | 313° |
| 2026-05-05 10:47 | 46.09013 | 16.01838 | 35989 ft | 432 kts | 312° |
| 2026-05-05 10:48 | 46.13276 | 15.95729 | 35985 ft | 432 kts | 312° |
| 2026-05-05 10:48 | 46.17541 | 15.89604 | 35983 ft | 432 kts | 312° |
| 2026-05-05 10:49 | 46.21771 | 15.83507 | 35979 ft | 432 kts | 312° |
| 2026-05-05 10:49 | 46.26027 | 15.77375 | 35980 ft | 432 kts | 312° |
| 2026-05-05 10:50 | 46.30282 | 15.71233 | 35979 ft | 432 kts | 312° |
| 2026-05-05 10:50 | 46.34530 | 15.65079 | 35980 ft | 432 kts | 312° |
| 2026-05-05 10:51 | 46.38769 | 15.58917 | 35979 ft | 432 kts | 312° |
| 2026-05-05 10:51 | 46.43005 | 15.52744 | 35968 ft | 432 kts | 312° |
| 2026-05-05 10:52 | 46.47239 | 15.46557 | 35971 ft | 432 kts | 312° |
| 2026-05-05 10:52 | 46.51470 | 15.40367 | 35960 ft | 432 kts | 311° |
| 2026-05-05 10:53 | 46.55704 | 15.34164 | 35957 ft | 433 kts | 312° |
| 2026-05-05 10:53 | 46.59937 | 15.27942 | 35953 ft | 433 kts | 311° |
| 2026-05-05 10:54 | 46.64139 | 15.21745 | 35950 ft | 432 kts | 311° |
| 2026-05-05 10:54 | 46.68464 | 15.15662 | 35963 ft | 433 kts | 314° |
| 2026-05-05 10:55 | 46.72965 | 15.09797 | 35931 ft | 434 kts | 315° |
| 2026-05-05 10:55 | 46.77468 | 15.03932 | 35930 ft | 434 kts | 314° |
| 2026-05-05 10:56 | 46.81933 | 14.97992 | 35939 ft | 434 kts | 314° |
| 2026-05-05 10:56 | 46.86373 | 14.92020 | 35933 ft | 434 kts | 314° |
| 2026-05-05 10:57 | 46.90814 | 14.86038 | 35939 ft | 434 kts | 314° |
| 2026-05-05 10:57 | 46.95257 | 14.80048 | 35914 ft | 434 kts | 314° |
| 2026-05-05 10:58 | 46.99700 | 14.74050 | 35912 ft | 435 kts | 314° |
| 2026-05-05 10:58 | 47.04123 | 14.68073 | 35904 ft | 436 kts | 314° |
| 2026-05-05 10:59 | 47.08569 | 14.62040 | 35908 ft | 435 kts | 313° |
| 2026-05-05 10:59 | 47.13014 | 14.55993 | 35906 ft | 436 kts | 313° |
| 2026-05-05 11:00 | 47.17494 | 14.49895 | 35909 ft | 436 kts | 313° |
| 2026-05-05 11:00 | 47.21912 | 14.43860 | 35901 ft | 437 kts | 314° |
| 2026-05-05 11:01 | 47.26366 | 14.37759 | 35892 ft | 437 kts | 313° |
| 2026-05-05 11:01 | 47.30819 | 14.31644 | 35874 ft | 437 kts | 314° |
| 2026-05-05 11:02 | 47.35266 | 14.25516 | 35861 ft | 438 kts | 314° |
| 2026-05-05 11:02 | 47.39714 | 14.19373 | 35864 ft | 438 kts | 314° |
| 2026-05-05 11:03 | 47.44165 | 14.13215 | 35835 ft | 438 kts | 313° |
| 2026-05-05 11:03 | 47.48612 | 14.07047 | 35831 ft | 439 kts | 313° |
| 2026-05-05 11:04 | 47.53068 | 14.00864 | 35840 ft | 439 kts | 313° |
| 2026-05-05 11:04 | 47.57487 | 13.94703 | 35824 ft | 439 kts | 313° |
| 2026-05-05 11:05 | 47.61932 | 13.88490 | 35839 ft | 439 kts | 313° |
| 2026-05-05 11:05 | 47.66370 | 13.82270 | 35824 ft | 439 kts | 313° |
| 2026-05-05 11:06 | 47.70809 | 13.76042 | 35827 ft | 438 kts | 313° |
| 2026-05-05 11:06 | 47.75240 | 13.69817 | 35815 ft | 438 kts | 313° |
| 2026-05-05 11:07 | 47.79636 | 13.63630 | 35811 ft | 438 kts | 313° |
| 2026-05-05 11:07 | 47.84053 | 13.57380 | 35816 ft | 438 kts | 313° |
| 2026-05-05 11:08 | 47.88467 | 13.51122 | 35812 ft | 438 kts | 313° |
| 2026-05-05 11:08 | 47.92878 | 13.44861 | 35811 ft | 438 kts | 313° |
| 2026-05-05 11:09 | 47.97287 | 13.38582 | 35806 ft | 438 kts | 313° |
| 2026-05-05 11:09 | 48.01691 | 13.32291 | 35804 ft | 438 kts | 313° |
| 2026-05-05 11:10 | 48.06095 | 13.25993 | 35806 ft | 438 kts | 313° |
| 2026-05-05 11:10 | 48.10492 | 13.19674 | 35802 ft | 439 kts | 313° |
| 2026-05-05 11:11 | 48.14895 | 13.13324 | 35799 ft | 439 kts | 313° |
| 2026-05-05 11:11 | 48.19300 | 13.06979 | 35798 ft | 439 kts | 313° |
| 2026-05-05 11:12 | 48.23680 | 13.00596 | 35799 ft | 439 kts | 311° |
| 2026-05-05 11:12 | 48.27800 | 12.93862 | 35815 ft | 437 kts | 307° |
| 2026-05-05 11:13 | 48.31762 | 12.86919 | 35800 ft | 438 kts | 307° |
| 2026-05-05 11:13 | 48.35751 | 12.79976 | 35797 ft | 439 kts | 308° |
| 2026-05-05 11:14 | 48.39781 | 12.73118 | 35796 ft | 440 kts | 308° |
| 2026-05-05 11:14 | 48.43846 | 12.66232 | 35800 ft | 439 kts | 308° |
| 2026-05-05 11:15 | 48.47889 | 12.59320 | 35802 ft | 439 kts | 308° |
| 2026-05-05 11:15 | 48.51919 | 12.52396 | 35803 ft | 439 kts | 308° |
| 2026-05-05 11:16 | 48.55947 | 12.45462 | 35802 ft | 439 kts | 308° |
| 2026-05-05 11:16 | 48.59972 | 12.38508 | 35799 ft | 439 kts | 308° |
| 2026-05-05 11:17 | 48.63991 | 12.31551 | 35799 ft | 439 kts | 308° |
| 2026-05-05 11:17 | 48.68005 | 12.24588 | 35829 ft | 439 kts | 307° |
| 2026-05-05 11:18 | 48.71969 | 12.17640 | 35805 ft | 438 kts | 304° |
| 2026-05-05 11:18 | 48.74897 | 12.09693 | 35802 ft | 429 kts | 286° |
| 2026-05-05 11:19 | 48.76184 | 12.00957 | 35800 ft | 424 kts | 276° |
| 2026-05-05 11:19 | 48.77149 | 11.92130 | 35806 ft | 425 kts | 276° |
| 2026-05-05 11:20 | 48.78106 | 11.83287 | 35822 ft | 425 kts | 276° |
| 2026-05-05 11:20 | 48.79048 | 11.74432 | 35820 ft | 426 kts | 276° |
| 2026-05-05 11:21 | 48.79983 | 11.65567 | 35820 ft | 426 kts | 275° |
| 2026-05-05 11:21 | 48.80907 | 11.56690 | 35822 ft | 426 kts | 275° |
| 2026-05-05 11:22 | 48.81826 | 11.47806 | 35821 ft | 426 kts | 275° |
| 2026-05-05 11:22 | 48.82747 | 11.38918 | 35835 ft | 426 kts | 275° |
| 2026-05-05 11:22 | 48.83203 | 11.34466 | 35686 ft | 428 kts | 275° |
| 2026-05-05 11:23 | 48.83663 | 11.30013 | 35425 ft | 428 kts | 277° |
| 2026-05-05 11:23 | 48.84456 | 11.25636 | 35179 ft | 433 kts | 287° |
| 2026-05-05 11:23 | 48.85776 | 11.21493 | 34930 ft | 440 kts | 297° |
| 2026-05-05 11:23 | 48.87607 | 11.17739 | 34680 ft | 446 kts | 308° |
| 2026-05-05 11:24 | 48.89861 | 11.14454 | 34435 ft | 451 kts | 313° |
| 2026-05-05 11:24 | 48.92181 | 11.11249 | 34192 ft | 452 kts | 313° |
| 2026-05-05 11:24 | 48.94502 | 11.08017 | 33959 ft | 452 kts | 313° |
| 2026-05-05 11:24 | 48.96821 | 11.04774 | 33701 ft | 453 kts | 313° |
| 2026-05-05 11:25 | 48.99138 | 11.01521 | 33448 ft | 454 kts | 312° |
| 2026-05-05 11:25 | 49.01467 | 10.98248 | 33173 ft | 455 kts | 313° |
| 2026-05-05 11:25 | 49.03794 | 10.94974 | 32906 ft | 456 kts | 313° |
| 2026-05-05 11:25 | 49.06125 | 10.91695 | 32622 ft | 456 kts | 313° |
| 2026-05-05 11:26 | 49.08436 | 10.88439 | 31633 ft | 462 kts | 313° |
| 2026-05-05 11:26 | 49.10787 | 10.85118 | 31084 ft | 457 kts | 313° |
| 2026-05-05 11:26 | 49.13106 | 10.81842 | 30468 ft | 453 kts | 313° |
| 2026-05-05 11:26 | 49.15411 | 10.78579 | 29829 ft | 450 kts | 313° |
| 2026-05-05 11:27 | 49.17698 | 10.75334 | 29166 ft | 447 kts | 313° |
| 2026-05-05 11:27 | 49.19965 | 10.72108 | 28554 ft | 442 kts | 312° |
| 2026-05-05 11:27 | 49.22166 | 10.68841 | 27804 ft | 440 kts | 311° |
| 2026-05-05 11:27 | 49.24302 | 10.65512 | 27181 ft | 437 kts | 310° |
| 2026-05-05 11:28 | 49.26391 | 10.62161 | 26578 ft | 433 kts | 310° |
| 2026-05-05 11:28 | 49.28448 | 10.58827 | 25980 ft | 429 kts | 310° |
| 2026-05-05 11:28 | 49.30494 | 10.55520 | 25394 ft | 426 kts | 310° |
| 2026-05-05 11:28 | 49.32533 | 10.52248 | 24822 ft | 422 kts | 310° |
| 2026-05-05 11:29 | 49.34563 | 10.49018 | 24263 ft | 419 kts | 311° |
| 2026-05-05 11:29 | 49.36487 | 10.45704 | 23709 ft | 412 kts | 303° |
| 2026-05-05 11:29 | 49.38125 | 10.42146 | 23298 ft | 405 kts | 302° |
| 2026-05-05 11:29 | 49.39733 | 10.38635 | 22861 ft | 400 kts | 302° |
| 2026-05-05 11:30 | 49.41331 | 10.35145 | 22456 ft | 397 kts | 302° |
| 2026-05-05 11:30 | 49.42911 | 10.31689 | 22057 ft | 395 kts | 302° |
| 2026-05-05 11:30 | 49.44484 | 10.28239 | 21680 ft | 394 kts | 302° |
| 2026-05-05 11:30 | 49.46049 | 10.24798 | 21279 ft | 392 kts | 302° |
| 2026-05-05 11:31 | 49.47587 | 10.21410 | 20888 ft | 390 kts | 302° |
| 2026-05-05 11:31 | 49.49132 | 10.18004 | 20474 ft | 388 kts | 302° |
| 2026-05-05 11:31 | 49.50668 | 10.14611 | 20075 ft | 385 kts | 302° |
| 2026-05-05 11:31 | 49.52194 | 10.11235 | 19689 ft | 383 kts | 302° |
| 2026-05-05 11:32 | 49.53712 | 10.07877 | 19302 ft | 380 kts | 301° |
| 2026-05-05 11:32 | 49.55217 | 10.04541 | 18916 ft | 377 kts | 301° |
| 2026-05-05 11:32 | 49.56709 | 10.01232 | 18533 ft | 375 kts | 301° |
| 2026-05-05 11:32 | 49.57691 | 9.99048 | 18283 ft | 373 kts | 301° |
| 2026-05-05 11:33 | 49.59165 | 9.95766 | 17876 ft | 372 kts | 301° |
| 2026-05-05 11:33 | 49.60633 | 9.92495 | 17506 ft | 369 kts | 301° |
| 2026-05-05 11:33 | 49.62087 | 9.89259 | 17045 ft | 366 kts | 301° |
| 2026-05-05 11:33 | 49.63535 | 9.86039 | 16590 ft | 364 kts | 302° |
| 2026-05-05 11:34 | 49.64973 | 9.82841 | 16154 ft | 361 kts | 302° |
| 2026-05-05 11:34 | 49.66395 | 9.79668 | 15723 ft | 358 kts | 302° |
| 2026-05-05 11:34 | 49.67800 | 9.76517 | 15298 ft | 355 kts | 302° |
| 2026-05-05 11:34 | 49.69193 | 9.73379 | 14871 ft | 353 kts | 302° |
| 2026-05-05 11:35 | 49.70574 | 9.70268 | 14459 ft | 350 kts | 302° |
| 2026-05-05 11:35 | 49.71947 | 9.67175 | 14063 ft | 347 kts | 302° |
| 2026-05-05 11:35 | 49.73310 | 9.64105 | 13673 ft | 345 kts | 302° |
| 2026-05-05 11:35 | 49.74665 | 9.61058 | 13255 ft | 343 kts | 302° |
| 2026-05-05 11:36 | 49.76010 | 9.58030 | 12814 ft | 340 kts | 302° |
| 2026-05-05 11:36 | 49.77344 | 9.55015 | 12378 ft | 338 kts | 302° |
| 2026-05-05 11:36 | 49.78669 | 9.52018 | 11934 ft | 337 kts | 302° |
| 2026-05-05 11:36 | 49.79968 | 9.49075 | 11476 ft | 335 kts | 302° |
| 2026-05-05 11:37 | 49.81296 | 9.46068 | 11034 ft | 333 kts | 303° |
| 2026-05-05 11:37 | 49.82584 | 9.43146 | 10628 ft | 331 kts | 303° |
| 2026-05-05 11:37 | 49.83881 | 9.40209 | 10190 ft | 330 kts | 304° |
| 2026-05-05 11:37 | 49.85514 | 9.37742 | 9774 ft | 329 kts | 327° |
| 2026-05-05 11:38 | 49.87536 | 9.36087 | 9284 ft | 329 kts | 333° |
| 2026-05-05 11:38 | 49.89596 | 9.34567 | 8827 ft | 327 kts | 334° |
| 2026-05-05 11:38 | 49.91645 | 9.33074 | 8374 ft | 324 kts | 334° |
| 2026-05-05 11:38 | 49.93683 | 9.31595 | 7924 ft | 322 kts | 334° |
| 2026-05-05 11:39 | 49.95707 | 9.30127 | 7481 ft | 320 kts | 334° |
| 2026-05-05 11:39 | 49.97724 | 9.28675 | 7059 ft | 318 kts | 334° |
| 2026-05-05 11:39 | 49.99727 | 9.27229 | 6677 ft | 317 kts | 334° |
| 2026-05-05 11:39 | 50.01723 | 9.25790 | 6360 ft | 313 kts | 334° |
| 2026-05-05 11:40 | 50.03672 | 9.24382 | 6099 ft | 305 kts | 334° |
| 2026-05-05 11:40 | 50.05571 | 9.23011 | 5848 ft | 296 kts | 334° |
| 2026-05-05 11:40 | 50.07352 | 9.21516 | 5585 ft | 286 kts | 320° |
| 2026-05-05 11:40 | 50.08558 | 9.19187 | 5335 ft | 274 kts | 292° |
| 2026-05-05 11:41 | 50.09185 | 9.16422 | 5081 ft | 269 kts | 285° |
| 2026-05-05 11:41 | 50.09705 | 9.13620 | 4844 ft | 271 kts | 284° |
| 2026-05-05 11:41 | 50.10204 | 9.10808 | 4595 ft | 272 kts | 284° |
| 2026-05-05 11:41 | 50.10696 | 9.07994 | 4326 ft | 265 kts | 284° |
| 2026-05-05 11:42 | 50.11167 | 9.05261 | 4085 ft | 257 kts | 284° |
| 2026-05-05 11:42 | 50.11622 | 9.02620 | 3980 ft | 246 kts | 284° |
| 2026-05-05 11:42 | 50.12055 | 9.00128 | 3982 ft | 230 kts | 284° |
| 2026-05-05 11:42 | 50.12460 | 8.97795 | 3983 ft | 216 kts | 284° |
| 2026-05-05 11:43 | 50.12602 | 8.95551 | 3979 ft | 203 kts | 262° |
| 2026-05-05 11:43 | 50.12229 | 8.93463 | 3981 ft | 199 kts | 249° |
| 2026-05-05 11:43 | 50.11752 | 8.91440 | 3985 ft | 199 kts | 249° |
| 2026-05-05 11:43 | 50.11276 | 8.89412 | 3985 ft | 199 kts | 249° |
| 2026-05-05 11:44 | 50.10801 | 8.87390 | 3986 ft | 199 kts | 249° |
| 2026-05-05 11:44 | 50.10332 | 8.85391 | 3895 ft | 193 kts | 249° |
| 2026-05-05 11:44 | 50.09875 | 8.83449 | 3661 ft | 189 kts | 249° |
| 2026-05-05 11:44 | 50.09423 | 8.81531 | 3419 ft | 189 kts | 249° |
| 2026-05-05 11:45 | 50.08971 | 8.79615 | 3170 ft | 188 kts | 249° |
| 2026-05-05 11:45 | 50.08519 | 8.77699 | 2922 ft | 188 kts | 249° |
| 2026-05-05 11:45 | 50.08068 | 8.75790 | 2674 ft | 187 kts | 249° |
| 2026-05-05 11:45 | 50.07620 | 8.73895 | 2416 ft | 185 kts | 249° |
| 2026-05-05 11:46 | 50.07182 | 8.72043 | 2186 ft | 176 kts | 249° |
| 2026-05-05 11:46 | 50.06774 | 8.70319 | 1966 ft | 161 kts | 249° |
| 2026-05-05 11:46 | 50.06403 | 8.68754 | 1738 ft | 148 kts | 249° |
| 2026-05-05 11:46 | 50.06052 | 8.67275 | 1540 ft | 144 kts | 249° |
| 2026-05-05 11:47 | 50.05714 | 8.65850 | 1358 ft | 142 kts | 249° |
| 2026-05-05 11:47 | 50.05373 | 8.64414 | 1167 ft | 141 kts | 249° |
| 2026-05-05 11:47 | 50.05033 | 8.62984 | 985 ft | 141 kts | 250° |
| 2026-05-05 11:47 | 50.04692 | 8.61551 | 799 ft | 141 kts | 250° |
| 2026-05-05 11:48 | 50.04010 | 8.58698 | 398 ft | 140 kts | 250° |
| 2026-05-05 11:48 | 50.03708 | 8.57402 | 357 ft | 106 kts | 250° |
| 2026-05-05 11:48 | 50.03497 | 8.56522 | 355 ft | 61 kts | 250° |
| 2026-05-05 11:49 | 50.03436 | 8.56046 | 358 ft | 38 kts | 278° |
| 2026-05-05 11:49 | 50.03474 | 8.55723 | 346 ft | 17 kts | 282° |
| 2026-05-05 11:49 | 50.03500 | 8.55609 | 354 ft | 8 kts | 330° |
| 2026-05-05 11:49 | 50.03552 | 8.55718 | 351 ft | 22 kts | 76° |
| 2026-05-05 11:50 | 50.03601 | 8.55950 | 358 ft | 23 kts | 69° |
| 2026-05-05 11:50 | 50.03662 | 8.56181 | 354 ft | 26 kts | 69° |
| 2026-05-05 11:50 | 50.03732 | 8.56475 | 358 ft | 26 kts | 70° |
| 2026-05-05 11:50 | 50.03792 | 8.56727 | 356 ft | 24 kts | 70° |
| 2026-05-05 11:51 | 50.03846 | 8.56953 | 357 ft | 23 kts | 70° |
| 2026-05-05 11:51 | 50.03900 | 8.57180 | 364 ft | 22 kts | 70° |
| 2026-05-05 11:51 | 50.03953 | 8.57400 | 370 ft | 22 kts | 69° |
| 2026-05-05 11:51 | 50.04006 | 8.57623 | 366 ft | 23 kts | 69° |
| 2026-05-05 11:52 | 50.04062 | 8.57856 | 367 ft | 24 kts | 69° |
| 2026-05-05 11:52 | 50.04117 | 8.58076 | 370 ft | 18 kts | 66° |
| 2026-05-05 11:52 | 50.04205 | 8.58183 | 368 ft | 13 kts | 26° |
| 2026-05-05 11:52 | 50.04235 | 8.58205 | 369 ft | 0 kts | 24° |
| 2026-05-05 11:56 | 50.04294 | 8.58201 | 370 ft | 20 kts | 342° |
| 2026-05-05 11:56 | 50.04434 | 8.58117 | 369 ft | 22 kts | 340° |
| 2026-05-05 11:57 | 50.04591 | 8.58027 | 362 ft | 26 kts | 340° |
| 2026-05-05 11:57 | 50.04752 | 8.57934 | 358 ft | 24 kts | 339° |
| 2026-05-05 11:57 | 50.04863 | 8.57788 | 360 ft | 22 kts | 293° |
| 2026-05-05 11:57 | 50.04924 | 8.57563 | 359 ft | 22 kts | 294° |
| 2026-05-05 11:58 | 50.04965 | 8.57420 | 359 ft | 8 kts | 297° |
| 2026-05-05 11:58 | 50.04997 | 8.57403 | 357 ft | 3 kts | 47° |
| 2026-05-05 11:58 | 50.05001 | 8.57419 | 358 ft | 1 kts | 70° |
| 2026-05-05 11:58 | 50.05002 | 8.57422 | 358 ft | 1 kts | 67° |
| 2026-05-05 11:59 | 50.05003 | 8.57429 | 363 ft | 0 kts | 69° |